Time;durP1;ratioP1;P1;durP2;ratioP2;P2;SDS_P1;SDS_P2;PMS_P1;PMS_P2;Temp;Humidity;BMP_temperature;BMP_pressure;BME280_temperature;BME280_humidity;BME280_pressure;Samples;Min_cycle;Max_cycle;Signal;HPM_P1;HPM_P2
2024/01/21 00:01:14;;;;;;;3.60;2.80;;;;;;;5.83;61.88;95609.28;5117406;28;20189;-61
2024/01/21 00:03:41;;;;;;;3.93;3.00;;;;;;;5.82;62.01;95602.59;5114263;28;20207;-70
2024/01/21 00:06:08;;;;;;;2.37;2.27;;;;;;;5.77;62.01;95600.31;5114942;28;20197;-64
2024/01/21 00:08:35;;;;;;;2.17;2.07;;;;;;;5.83;62.09;95616.91;5113684;28;20197;-69
2024/01/21 00:11:01;;;;;;;2.60;2.40;;;;;;;5.75;61.96;95597.88;5111427;28;20185;-70
2024/01/21 00:13:28;;;;;;;2.93;2.33;;;;;;;5.85;61.89;95615.13;5110916;28;20281;-65
2024/01/21 00:15:55;;;;;;;2.67;2.47;;;;;;;5.86;61.85;95619.28;5111579;28;20188;-68
2024/01/21 00:18:23;;;;;;;2.53;2.27;;;;;;;5.86;61.91;95616.75;5110830;28;20196;-66
2024/01/21 00:20:50;;;;;;;5.17;2.33;;;;;;;5.87;61.85;95619.22;5112153;28;20188;-62
2024/01/21 00:23:17;;;;;;;3.03;2.80;;;;;;;5.87;61.80;95619.22;5110485;28;20193;-66
2024/01/21 00:25:43;;;;;;;2.40;2.20;;;;;;;5.84;61.95;95611.75;5110613;28;20565;-63
2024/01/21 00:28:10;;;;;;;2.43;2.23;;;;;;;5.88;61.66;95620.03;5110428;28;20193;-64
2024/01/21 00:30:37;;;;;;;2.23;2.07;;;;;;;5.86;61.54;95622.63;5110329;28;20196;-61
2024/01/21 00:33:04;;;;;;;3.80;2.47;;;;;;;5.86;61.71;95622.63;5110627;28;20200;-66
2024/01/21 00:35:32;;;;;;;3.40;2.30;;;;;;;5.86;61.62;95630.25;5110397;28;20196;-71
2024/01/21 00:37:59;;;;;;;2.90;2.37;;;;;;;5.86;61.69;95624.34;5110514;28;20221;-64
2024/01/21 00:40:26;;;;;;;2.60;2.20;;;;;;;5.63;61.47;95588.41;5110162;28;20181;-63
2024/01/21 00:42:56;;;;;;;2.90;2.47;;;;;;;5.52;61.53;95563.59;5110734;28;20193;-70
2024/01/21 00:45:22;;;;;;;2.80;2.60;;;;;;;5.86;61.50;95621.81;5109987;28;20200;-69
2024/01/21 00:47:49;;;;;;;3.30;2.30;;;;;;;5.68;61.38;95603.38;5111103;28;20185;-68
2024/01/21 00:50:16;;;;;;;2.40;2.20;;;;;;;5.85;61.33;95630.34;5111553;28;20192;-71
2024/01/21 00:52:44;;;;;;;2.30;2.10;;;;;;;5.84;61.41;95629.53;5118468;28;20185;-69
2024/01/21 00:55:11;;;;;;;3.10;2.50;;;;;;;5.84;61.58;95624.44;5122430;28;20181;-68
2024/01/21 00:57:38;;;;;;;2.40;2.13;;;;;;;5.75;61.51;95615.63;5113903;28;20223;-63
2024/01/21 01:00:06;;;;;;;2.10;2.00;;;;;;;5.83;61.55;95629.59;5110254;28;20193;-67
2024/01/21 01:02:33;;;;;;;2.43;2.23;;;;;;;5.82;61.49;95631.31;5110406;28;20212;-66
2024/01/21 01:04:59;;;;;;;2.63;2.43;;;;;;;5.56;61.46;95589.63;5110570;28;20181;-69
2024/01/21 01:07:26;;;;;;;2.10;2.00;;;;;;;5.76;61.41;95617.25;5110392;28;20193;-69
2024/01/21 01:09:54;;;;;;;2.43;2.20;;;;;;;5.82;61.47;95623.69;5110422;28;20177;-65
2024/01/21 01:12:21;;;;;;;3.30;2.57;;;;;;;5.82;61.49;95630.50;5110286;28;20232;-62
2024/01/21 01:14:48;;;;;;;2.83;2.50;;;;;;;5.82;61.47;95630.50;5110209;28;20219;-62
2024/01/21 01:17:15;;;;;;;2.13;2.00;;;;;;;5.82;61.51;95627.97;5110398;28;20231;-63
2024/01/21 01:19:41;;;;;;;2.60;2.30;;;;;;;5.82;61.49;95633.03;5111096;28;20208;-63
2024/01/21 01:22:09;;;;;;;2.57;2.17;;;;;;;5.81;61.42;95632.22;5111967;28;20299;-64
2024/01/21 01:24:36;;;;;;;2.40;2.20;;;;;;;5.64;61.40;95602.72;5114512;28;20276;-61
2024/01/21 01:27:05;;;;;;;2.60;2.17;;;;;;;5.80;61.43;95628.06;5114203;28;20955;-68
2024/01/21 01:29:31;;;;;;;2.10;2.00;;;;;;;5.81;61.36;95629.69;5114337;28;20185;-64
2024/01/21 01:31:58;;;;;;;2.53;2.00;;;;;;;5.79;61.38;95621.34;5114134;28;20200;-62
2024/01/21 01:34:25;;;;;;;2.10;1.90;;;;;;;5.69;61.35;95615.94;5114445;28;20237;-69
2024/01/21 01:36:52;;;;;;;2.17;2.03;;;;;;;5.70;61.44;95615.06;5113853;28;20277;-64
2024/01/21 01:39:19;;;;;;;2.73;2.30;;;;;;;5.72;61.41;95614.97;5114336;27;20204;-63
2024/01/21 01:41:45;;;;;;;2.10;2.00;;;;;;;5.77;61.32;95623.16;5114721;28;20204;-67
2024/01/21 01:44:14;;;;;;;2.10;2.00;;;;;;;5.73;61.44;95625.03;5114667;28;20185;-66
2024/01/21 01:46:41;;;;;;;3.83;2.13;;;;;;;5.76;61.46;95626.59;5116121;28;20204;-70
2024/01/21 01:49:08;;;;;;;2.50;2.30;;;;;;;5.77;61.30;95633.31;5114345;28;20193;-68
2024/01/21 01:51:37;;;;;;;2.03;1.93;;;;;;;5.75;61.48;95630.84;5113980;28;20192;-66
2024/01/21 01:54:05;;;;;;;2.40;2.20;;;;;;;5.56;61.32;95607.38;5113512;27;20192;-64
2024/01/21 01:56:32;;;;;;;2.20;2.00;;;;;;;5.74;61.36;95631.78;5113491;28;20189;-69
2024/01/21 01:59:01;;;;;;;3.27;2.20;;;;;;;5.73;61.28;95629.28;5113632;28;20198;-64
2024/01/21 02:01:30;;;;;;;2.03;1.93;;;;;;;5.70;61.51;95635.38;5114446;28;20200;-61
2024/01/21 02:03:57;;;;;;;2.10;2.00;;;;;;;5.70;61.22;95632.00;5115221;28;20197;-61
2024/01/21 02:06:24;;;;;;;2.43;2.20;;;;;;;5.67;61.26;95634.72;5115554;28;20191;-67
2024/01/21 02:08:51;;;;;;;2.10;2.00;;;;;;;5.59;61.31;95624.19;5113654;28;20192;-66
2024/01/21 02:11:18;;;;;;;2.13;2.03;;;;;;;5.64;61.22;95639.97;5113885;28;20670;-66
2024/01/21 02:13:44;;;;;;;2.10;2.00;;;;;;;5.60;61.29;95638.50;5112826;28;20203;-65
2024/01/21 02:16:11;;;;;;;2.30;2.10;;;;;;;5.63;61.29;95645.94;5113748;28;20193;-68
2024/01/21 02:18:41;;;;;;;2.30;2.20;;;;;;;5.59;61.45;95637.69;5113606;28;20232;-65
2024/01/21 02:21:08;;;;;;;2.27;2.17;;;;;;;5.59;61.27;95639.41;5113672;28;20189;-68
2024/01/21 02:23:36;;;;;;;2.07;1.97;;;;;;;5.57;61.35;95641.19;5112826;28;20658;-68
2024/01/21 02:26:03;;;;;;;2.13;1.93;;;;;;;5.26;61.35;95598.00;5113273;28;20197;-66
2024/01/21 02:28:30;;;;;;;2.30;2.00;;;;;;;5.52;61.36;95647.31;5112967;28;20634;-62
2024/01/21 02:30:57;;;;;;;2.40;2.20;;;;;;;5.52;61.35;95654.94;5112703;28;20197;-64
2024/01/21 02:33:24;;;;;;;2.00;1.90;;;;;;;5.48;61.39;95648.44;5112911;28;20573;-64
2024/01/21 02:35:50;;;;;;;2.27;2.07;;;;;;;5.47;61.29;95653.56;5112682;28;20189;-64
2024/01/21 02:38:17;;;;;;;2.10;2.00;;;;;;;5.43;61.33;95652.09;5112521;28;20209;-68
2024/01/21 02:40:45;;;;;;;2.20;2.10;;;;;;;5.38;61.25;95649.00;5112730;28;20207;-66
2024/01/21 02:43:13;;;;;;;2.13;2.03;;;;;;;5.37;61.39;95658.31;5112965;28;20188;-69
2024/01/21 02:45:40;;;;;;;2.30;2.10;;;;;;;5.39;61.38;95671.72;5112455;28;20193;-65
2024/01/21 02:48:07;;;;;;;2.37;2.20;;;;;;;5.38;61.35;95669.28;5113165;28;20182;-68
2024/01/21 02:50:34;;;;;;;2.27;2.00;;;;;;;4.44;61.25;95517.06;5112188;28;20181;-70
2024/01/21 02:53:01;;;;;;;2.33;2.13;;;;;;;5.33;61.37;95664.44;5114007;28;20181;-67
2024/01/21 02:55:27;;;;;;;1.77;1.67;;;;;;;5.29;61.21;95662.97;5114763;28;20192;-67
2024/01/21 02:57:55;;;;;;;2.10;2.00;;;;;;;5.27;61.32;95670.69;5113937;28;20231;-69
2024/01/21 03:00:23;;;;;;;2.40;2.20;;;;;;;5.25;61.34;95682.59;5112864;28;20237;-72
2024/01/21 03:02:52;;;;;;;2.07;1.97;;;;;;;5.22;61.30;95677.72;5113785;28;20675;-69
2024/01/21 03:05:19;;;;;;;2.00;1.90;;;;;;;5.21;61.24;95680.31;5112755;28;20199;-69
2024/01/21 03:07:45;;;;;;;2.07;1.97;;;;;;;5.19;61.29;95677.06;5112311;28;20192;-69
2024/01/21 03:10:12;;;;;;;2.20;2.00;;;;;;;5.17;61.40;95681.38;5112437;28;20185;-71
2024/01/21 03:12:39;;;;;;;2.03;1.93;;;;;;;5.11;61.37;95679.97;5112583;28;20225;-68
2024/01/21 03:15:08;;;;;;;3.63;2.10;;;;;;;5.12;61.39;95676.53;5112233;28;20585;-69
2024/01/21 03:17:35;;;;;;;1.90;1.80;;;;;;;5.10;61.25;95682.63;5111989;28;20228;-65
2024/01/21 03:20:02;;;;;;;2.00;1.90;;;;;;;5.00;61.44;95672.09;5112712;28;20584;-68
2024/01/21 03:22:28;;;;;;;2.07;1.97;;;;;;;5.01;61.43;95686.44;5112382;28;20203;-71
2024/01/21 03:24:55;;;;;;;2.10;2.00;;;;;;;5.00;61.32;95684.78;5112064;28;20204;-67
2024/01/21 03:27:22;;;;;;;2.10;2.00;;;;;;;4.95;61.58;95687.56;5111908;28;20193;-70
2024/01/21 03:29:49;;;;;;;2.27;2.07;;;;;;;4.85;61.23;95683.88;5112539;28;20303;-64
2024/01/21 03:32:17;;;;;;;2.13;2.00;;;;;;;4.92;61.36;95702.09;5113268;28;20193;-64
2024/01/21 03:34:44;;;;;;;2.87;2.00;;;;;;;4.88;61.44;95695.53;5122516;28;20630;-63
2024/01/21 03:37:11;;;;;;;2.00;1.90;;;;;;;4.85;61.50;95701.59;5114117;28;20215;-67
2024/01/21 03:39:38;;;;;;;2.20;2.00;;;;;;;4.83;61.53;95702.56;5112844;28;20193;-66
2024/01/21 03:42:06;;;;;;;2.23;2.00;;;;;;;4.80;61.54;95701.03;5113480;28;20271;-70
2024/01/21 03:44:32;;;;;;;2.20;2.10;;;;;;;4.79;61.60;95714.56;5110844;28;20573;-69
2024/01/21 03:47:00;;;;;;;2.43;2.23;;;;;;;4.75;61.63;95711.41;5111642;28;20712;-70
2024/01/21 03:49:30;;;;;;;2.00;1.90;;;;;;;4.63;61.42;95696.81;5110937;28;20185;-62
2024/01/21 03:51:57;;;;;;;2.47;2.03;;;;;;;4.72;61.53;95709.00;5111822;28;20185;-64
2024/01/21 03:54:24;;;;;;;2.00;1.90;;;;;;;4.70;61.40;95715.03;5111177;28;20661;-65
2024/01/21 03:56:51;;;;;;;1.90;1.80;;;;;;;4.68;61.39;95717.66;5111326;28;20572;-67
2024/01/21 03:59:17;;;;;;;2.40;2.20;;;;;;;4.55;61.33;95695.56;5111915;28;20262;-63
2024/01/21 04:01:44;;;;;;;2.03;1.93;;;;;;;4.63;61.39;95719.59;5115421;28;20202;-63
2024/01/21 04:04:11;;;;;;;1.93;1.83;;;;;;;4.48;61.56;95697.56;5111486;28;20284;-63
2024/01/21 04:06:41;;;;;;;3.10;2.00;;;;;;;4.42;61.21;95701.22;5111396;28;20216;-63
2024/01/21 04:09:09;;;;;;;2.43;2.23;;;;;;;4.54;61.48;95725.13;5111270;28;20646;-62
2024/01/21 04:11:36;;;;;;;1.80;1.70;;;;;;;4.55;61.48;95725.94;5111099;28;20224;-68
2024/01/21 04:14:03;;;;;;;2.10;2.00;;;;;;;4.50;61.41;95729.53;5110689;28;20207;-64
2024/01/21 04:16:31;;;;;;;2.17;2.07;;;;;;;4.51;61.38;95732.88;5110634;28;20231;-68
2024/01/21 04:18:57;;;;;;;2.10;2.00;;;;;;;4.45;61.50;95736.53;5111184;28;20265;-71
2024/01/21 04:21:24;;;;;;;2.20;2.10;;;;;;;4.47;61.52;95747.41;5110506;28;20196;-69
2024/01/21 04:23:52;;;;;;;2.00;1.90;;;;;;;4.44;61.63;95747.53;5111155;28;20189;-66
2024/01/21 04:26:19;;;;;;;2.70;2.00;;;;;;;4.43;61.45;95742.56;5111134;28;20566;-68
2024/01/21 04:28:46;;;;;;;2.60;2.27;;;;;;;4.39;61.48;95741.06;5111129;28;20177;-70
2024/01/21 04:31:13;;;;;;;2.50;2.30;;;;;;;4.31;61.54;95730.47;5112197;28;20192;-64
2024/01/21 04:33:39;;;;;;;3.73;2.60;;;;;;;4.35;61.66;95755.59;5128432;28;20197;-63
2024/01/21 04:36:08;;;;;;;3.33;3.03;;;;;;;4.32;61.43;95758.28;5127763;28;20177;-65
2024/01/21 04:38:35;;;;;;;2.83;2.63;;;;;;;4.29;61.45;95755.88;5129641;28;20217;-65
2024/01/21 04:41:03;;;;;;;2.80;2.60;;;;;;;4.16;61.56;95739.66;5117114;28;20185;-66
2024/01/21 04:43:30;;;;;;;3.03;2.83;;;;;;;4.25;61.60;95767.06;5110806;28;20185;-68
2024/01/21 04:45:57;;;;;;;3.20;2.90;;;;;;;4.22;61.56;95773.06;5110442;28;20189;-63
2024/01/21 04:48:24;;;;;;;3.23;2.93;;;;;;;4.20;61.48;95769.81;5110334;28;20571;-66
2024/01/21 04:50:50;;;;;;;3.53;2.87;;;;;;;3.98;61.59;95744.69;5110630;28;20200;-64
2024/01/21 04:53:17;;;;;;;5.70;3.03;;;;;;;4.15;61.42;95773.47;5110538;28;20194;-71
2024/01/21 04:55:44;;;;;;;4.10;2.90;;;;;;;4.12;61.47;95773.59;5110412;28;20662;-67
2024/01/21 04:58:12;;;;;;;3.27;2.73;;;;;;;4.09;61.57;95772.00;5113958;28;20213;-67
2024/01/21 05:00:39;;;;;;;3.97;3.30;;;;;;;4.08;61.54;95774.63;5115255;28;20177;-66
2024/01/21 05:03:06;;;;;;;3.70;3.10;;;;;;;4.05;61.47;95778.09;5114654;28;20189;-65
2024/01/21 05:05:32;;;;;;;3.63;3.10;;;;;;;3.95;61.43;95770.13;5114849;28;20258;-64
2024/01/21 05:07:59;;;;;;;3.33;3.00;;;;;;;3.97;61.31;95781.00;5114710;28;20185;-64
2024/01/21 05:10:26;;;;;;;3.10;2.80;;;;;;;3.88;61.53;95775.53;5114305;28;20188;-67
2024/01/21 05:12:53;;;;;;;4.37;3.10;;;;;;;3.95;61.45;95787.84;5114180;28;20251;-65
2024/01/21 05:15:21;;;;;;;2.93;2.73;;;;;;;3.94;61.37;95790.44;5114566;28;20770;-68
2024/01/21 05:17:47;;;;;;;3.83;3.13;;;;;;;3.91;61.38;95793.94;5113784;28;20239;-65
2024/01/21 05:20:14;;;;;;;2.90;2.67;;;;;;;3.74;61.33;95774.47;5114464;28;20555;-70
2024/01/21 05:22:41;;;;;;;3.30;2.93;;;;;;;3.72;61.26;95776.25;5114153;28;20196;-68
2024/01/21 05:25:08;;;;;;;2.83;2.63;;;;;;;3.58;61.31;95757.50;5115015;28;20177;-68
2024/01/21 05:27:35;;;;;;;3.13;2.83;;;;;;;3.77;61.29;95796.28;5115318;28;20204;-71
2024/01/21 05:30:03;;;;;;;2.80;2.60;;;;;;;3.78;61.36;95806.31;5120403;28;20192;-71
2024/01/21 05:32:32;;;;;;;2.70;2.50;;;;;;;3.74;61.34;95812.41;5116890;28;20857;-67
2024/01/21 05:34:58;;;;;;;3.43;2.80;;;;;;;3.41;61.29;95769.22;5113986;28;20193;-72
2024/01/21 05:37:25;;;;;;;3.27;3.00;;;;;;;3.75;61.45;95816.56;5113725;28;20595;-67
2024/01/21 05:39:52;;;;;;;3.20;2.90;;;;;;;3.72;61.43;95814.19;5113751;28;20224;-68
2024/01/21 05:42:19;;;;;;;3.30;3.00;;;;;;;3.72;61.38;95824.31;5114237;28;20193;-71
2024/01/21 05:44:46;;;;;;;3.00;2.67;;;;;;;3.70;61.51;95828.59;5113857;28;20247;-68
2024/01/21 05:47:12;;;;;;;3.27;2.77;;;;;;;3.70;61.42;95832.84;5113818;28;20193;-64
2024/01/21 05:49:41;;;;;;;3.10;2.80;;;;;;;3.68;61.39;95835.47;5113537;28;20697;-62
2024/01/21 05:52:10;;;;;;;3.17;2.87;;;;;;;3.68;61.38;95835.47;5113691;28;20181;-62
2024/01/21 05:54:37;;;;;;;3.33;2.70;;;;;;;3.67;61.33;95838.88;5113574;28;20227;-64
2024/01/21 05:57:05;;;;;;;5.07;3.60;;;;;;;3.45;61.40;95807.81;5114256;28;20200;-72
2024/01/21 05:59:32;;;;;;;3.53;3.23;;;;;;;3.60;61.40;95832.44;5113913;28;20273;-66
2024/01/21 06:01:59;;;;;;;3.50;3.20;;;;;;;3.56;61.28;95820.00;5115699;28;20220;-62
2024/01/21 06:04:26;;;;;;;3.93;3.53;;;;;;;3.65;61.25;95855.81;5114072;28;20181;-64
2024/01/21 06:06:54;;;;;;;4.43;3.57;;;;;;;3.66;61.28;95854.91;5113643;28;20189;-67
2024/01/21 06:09:21;;;;;;;4.33;3.60;;;;;;;3.66;61.50;95852.38;5113913;28;20204;-66
2024/01/21 06:11:47;;;;;;;4.87;3.27;;;;;;;3.68;60.89;95859.94;5117116;28;20232;-63
2024/01/21 06:14:14;;;;;;;3.80;3.33;;;;;;;3.70;61.25;95851.38;5122833;28;20206;-71
2024/01/21 06:16:41;;;;;;;4.17;3.67;;;;;;;3.62;61.28;95842.47;5113144;28;20538;-63
2024/01/21 06:19:08;;;;;;;4.30;3.40;;;;;;;3.57;61.26;95824.97;5113415;28;20693;-70
2024/01/21 06:21:34;;;;;;;4.93;3.60;;;;;;;3.72;61.25;95843.72;5112971;28;20185;-63
2024/01/21 06:24:03;;;;;;;4.20;3.80;;;;;;;3.79;60.83;95850.16;5113371;28;20185;-67
2024/01/21 06:26:30;;;;;;;3.80;3.50;;;;;;;3.87;61.04;95859.94;5113089;28;20192;-66
2024/01/21 06:28:56;;;;;;;4.27;3.73;;;;;;;3.90;61.10;95855.56;5113018;28;20189;-65
2024/01/21 06:31:23;;;;;;;3.77;3.37;;;;;;;3.97;61.07;95858.63;5112561;28;20189;-64
2024/01/21 06:33:50;;;;;;;4.73;3.83;;;;;;;3.96;60.79;95829.97;5113167;28;20184;-66
2024/01/21 06:36:17;;;;;;;5.20;4.10;;;;;;;4.32;60.64;95861.25;5113202;28;20196;-66
2024/01/21 06:38:43;;;;;;;5.83;3.83;;;;;;;4.67;60.02;95857.09;5112749;28;20228;-64
2024/01/21 06:41:12;;;;;;;4.13;3.73;;;;;;;5.09;59.56;95854.16;5112868;28;20208;-69
2024/01/21 06:43:38;;;;;;;5.03;3.67;;;;;;;5.56;59.65;95852.69;5112329;28;20553;-64
2024/01/21 06:46:05;;;;;;;3.97;3.53;;;;;;;6.10;59.44;95864.25;5112186;28;20658;-65
2024/01/21 06:48:32;;;;;;;4.20;3.80;;;;;;;6.68;59.35;95866.16;5112428;28;20200;-63
2024/01/21 06:50:59;;;;;;;4.77;3.60;;;;;;;7.31;59.25;95862.63;5113230;28;20254;-68
2024/01/21 06:53:25;;;;;;;3.93;3.50;;;;;;;7.98;59.38;95873.88;5112801;28;20177;-65
2024/01/21 06:55:52;;;;;;;8.63;3.33;;;;;;;8.94;89.18;95869.66;5113031;28;20181;-65
2024/01/21 06:58:21;;;;;;;4.03;2.80;;;;;;;10.43;94.90;95875.81;5112579;28;20197;-68
2024/01/21 07:00:51;;;;;;;7.93;2.67;;;;;;;11.86;87.17;95871.38;5112517;28;20336;-72
2024/01/21 07:03:18;;;;;;;3.37;3.07;;;;;;;13.04;79.68;95872.44;5112165;28;20188;-64
2024/01/21 07:05:45;;;;;;;3.07;2.67;;;;;;;13.93;74.80;95881.34;5099520;28;20284;-66
2024/01/21 07:08:12;;;;;;;2.80;2.60;;;;;;;14.58;71.23;95881.84;5089992;28;20182;-63
2024/01/21 07:10:39;;;;;;;6.03;3.27;;;;;;;15.11;68.17;95884.09;5094356;28;20280;-66
2024/01/21 07:13:06;;;;;;;2.90;2.53;;;;;;;15.51;65.34;95881.31;5109267;28;20255;-71
2024/01/21 07:15:34;;;;;;;3.70;2.80;;;;;;;15.90;62.70;95877.88;5109934;28;20635;-63
2024/01/21 07:18:01;;;;;;;3.63;3.23;;;;;;;16.29;60.65;95870.78;5110058;28;20205;-69
2024/01/21 07:20:28;;;;;;;3.27;2.97;;;;;;;16.90;58.66;95902.94;5109035;28;20228;-69
2024/01/21 07:22:55;;;;;;;3.17;2.87;;;;;;;17.26;56.99;95901.94;5109731;28;20193;-70
2024/01/21 07:25:22;;;;;;;4.97;3.30;;;;;;;17.67;55.48;95904.84;5108977;28;20208;-74
2024/01/21 07:27:49;;;;;;;3.03;2.83;;;;;;;18.03;54.17;95909.94;5109311;28;20184;-71
2024/01/21 07:30:17;;;;;;;3.43;3.13;;;;;;;18.36;53.04;95913.50;5109109;28;20200;-73
2024/01/21 07:32:45;;;;;;;4.37;3.10;;;;;;;18.50;51.78;95883.59;5109497;28;20246;-71
2024/01/21 07:35:13;;;;;;;3.10;2.80;;;;;;;18.96;50.66;95905.63;5109602;28;20200;-73
2024/01/21 07:37:40;;;;;;;3.60;3.30;;;;;;;19.35;50.06;95923.19;5110044;28;20629;-64
2024/01/21 07:40:08;;;;;;;4.03;2.80;;;;;;;19.63;49.25;95917.69;5108918;28;20766;-71
2024/01/21 07:42:35;;;;;;;3.60;3.30;;;;;;;19.90;48.27;95919.09;5108584;28;20247;-70
2024/01/21 07:45:01;;;;;;;3.60;3.20;;;;;;;20.13;47.20;95922.63;5108563;28;20189;-65
2024/01/21 07:47:28;;;;;;;5.15;3.88;;;;;;;20.36;46.50;95922.72;5108841;28;20189;-69
2024/01/21 07:49:56;;;;;;;3.95;3.30;;;;;;;20.54;45.87;95914.72;5110072;27;20184;-69
2024/01/21 07:52:23;;;;;;;3.50;3.20;;;;;;;20.78;44.97;95921.59;5109459;28;20185;-67
2024/01/21 07:54:50;;;;;;;4.15;3.38;;;;;;;20.97;44.05;95928.13;5108702;28;20185;-65
2024/01/21 07:57:17;;;;;;;2.95;2.65;;;;;;;21.13;43.62;95920.25;5108714;28;20177;-67
2024/01/21 07:59:44;;;;;;;3.58;3.28;;;;;;;21.28;43.13;95928.09;5109706;28;20209;-65
2024/01/21 08:02:10;;;;;;;4.53;3.78;;;;;;;21.15;42.55;95901.84;5113457;28;20581;-68
2024/01/21 08:04:37;;;;;;;3.58;3.28;;;;;;;20.90;42.40;95896.81;5109875;28;20181;-72
2024/01/21 08:07:06;;;;;;;3.97;3.25;;;;;;;20.85;42.16;95932.09;5115758;28;20188;-66
2024/01/21 08:09:32;;;;;;;4.32;3.58;;;;;;;19.98;42.10;95857.56;5114170;28;20196;-70
2024/01/21 08:11:59;;;;;;;5.10;3.63;;;;;;;19.92;42.31;95899.78;5117611;28;20213;-70
2024/01/21 08:14:26;;;;;;;7.75;4.43;;;;;;;20.04;42.57;95931.41;5114611;28;20712;-72
2024/01/21 08:16:53;;;;;;;5.20;4.43;;;;;;;19.82;42.88;95909.56;5111854;28;20535;-68
2024/01/21 08:19:21;;;;;;;5.15;4.50;;;;;;;19.64;43.57;95943.44;5108071;28;20705;-75
2024/01/21 08:21:48;;;;;;;7.00;4.33;;;;;;;19.23;43.66;95951.19;5107608;28;20732;-68
2024/01/21 08:24:16;;;;;;;5.37;4.37;;;;;;;18.97;43.35;95951.31;5107136;28;20628;-68
2024/01/21 08:26:43;;;;;;;4.38;3.75;;;;;;;18.96;42.90;95954.88;5107347;28;20197;-65
2024/01/21 08:29:11;;;;;;;4.47;4.05;;;;;;;18.45;42.42;95929.91;5107140;28;20204;-71
2024/01/21 08:31:46;;;;;;;5.77;4.20;;;;;;;18.05;42.40;95947.69;5108234;28;20196;-66
2024/01/21 08:34:13;;;;;;;4.10;3.70;;;;;;;17.36;42.59;95929.50;5108456;28;20195;-65
2024/01/21 08:36:40;;;;;;;5.70;3.90;;;;;;;17.00;42.69;95958.75;5108871;28;20185;-62
2024/01/21 08:39:09;;;;;;;5.43;4.33;;;;;;;16.46;42.73;95952.63;5110360;28;20307;-67
2024/01/21 08:41:37;;;;;;;4.47;4.07;;;;;;;16.00;43.09;95950.88;5113488;28;20545;-66
2024/01/21 08:44:05;;;;;;;4.43;4.03;;;;;;;15.45;43.34;95930.84;5113142;28;20283;-67
2024/01/21 08:46:31;;;;;;;4.00;3.60;;;;;;;15.31;43.71;95967.34;5117681;28;20264;-65
2024/01/21 08:48:58;;;;;;;4.77;3.60;;;;;;;14.87;43.72;95948.88;5110904;28;20193;-65
2024/01/21 08:51:24;;;;;;;4.13;3.67;;;;;;;14.75;43.59;95970.53;5111746;28;20196;-69
2024/01/21 08:53:56;;;;;;;4.33;3.93;;;;;;;14.36;43.80;95931.75;5117633;28;20201;-66
2024/01/21 08:56:23;;;;;;;5.63;4.03;;;;;;;14.33;43.62;95970.63;5115251;28;20264;-65
2024/01/21 08:58:52;;;;;;;3.93;3.53;;;;;;;13.88;43.97;95927.22;5110589;28;20582;-69
2024/01/21 09:01:19;;;;;;;4.77;3.70;;;;;;;13.84;44.06;95964.41;5110889;28;20184;-66
2024/01/21 09:03:45;;;;;;;3.93;3.57;;;;;;;13.54;44.26;95962.59;5110997;28;20192;-63
2024/01/21 09:06:13;;;;;;;3.60;3.23;;;;;;;12.80;44.33;95876.00;5115986;28;20189;-67
2024/01/21 09:08:39;;;;;;;3.43;3.13;;;;;;;12.54;44.40;95872.94;5124170;28;20196;-67
2024/01/21 09:11:06;;;;;;;3.60;2.87;;;;;;;12.97;44.67;95966.28;5116612;28;20656;-67
2024/01/21 09:13:33;;;;;;;4.03;3.70;;;;;;;12.75;44.80;95956.88;5110526;28;20189;-66
2024/01/21 09:16:02;;;;;;;3.80;3.50;;;;;;;12.43;45.17;95931.97;5110031;28;20185;-66
2024/01/21 09:18:30;;;;;;;4.00;3.60;;;;;;;12.45;45.06;95954.94;5109675;28;20189;-68
2024/01/21 09:20:57;;;;;;;4.20;3.13;;;;;;;12.29;45.14;95963.81;5109184;28;20738;-63
2024/01/21 09:23:24;;;;;;;3.20;2.90;;;;;;;12.04;45.14;95940.94;5109988;28;20189;-66
2024/01/21 09:25:51;;;;;;;3.43;3.13;;;;;;;11.81;45.58;95917.84;5109515;28;20191;-67
2024/01/21 09:28:18;;;;;;;3.80;3.10;;;;;;;11.82;45.43;95946.84;5109953;28;20178;-66
2024/01/21 09:30:45;;;;;;;3.47;3.17;;;;;;;11.76;45.61;95947.31;5109983;28;20178;-67
2024/01/21 09:33:13;;;;;;;3.40;3.10;;;;;;;11.67;45.76;95953.94;5111025;28;20199;-66
2024/01/21 09:35:40;;;;;;;3.23;3.03;;;;;;;11.50;45.56;95939.78;5110107;28;20189;-65
2024/01/21 09:38:08;;;;;;;3.80;3.50;;;;;;;11.47;45.65;95946.88;5110629;28;20189;-66
2024/01/21 09:40:35;;;;;;;3.73;3.43;;;;;;;11.30;45.50;95940.41;5109394;28;20205;-67
2024/01/21 09:43:01;;;;;;;3.63;3.33;;;;;;;11.25;45.83;95955.31;5110452;28;20185;-62
2024/01/21 09:45:31;;;;;;;5.03;3.77;;;;;;;11.14;45.82;95956.09;5113565;28;20576;-67
2024/01/21 09:47:59;;;;;;;4.30;3.57;;;;;;;11.04;45.89;95953.34;5113676;28;20219;-66
2024/01/21 09:50:28;;;;;;;4.40;3.97;;;;;;;10.83;45.80;95925.91;5113397;28;20215;-71
2024/01/21 09:52:55;;;;;;;3.90;3.60;;;;;;;10.84;45.83;95938.63;5114078;28;20192;-69
2024/01/21 09:55:23;;;;;;;4.10;3.50;;;;;;;10.75;45.89;95936.69;5113809;28;20197;-69
2024/01/21 09:57:51;;;;;;;5.67;4.03;;;;;;;10.71;46.19;95935.28;5115339;28;20177;-71
2024/01/21 10:00:19;;;;;;;3.70;3.40;;;;;;;10.51;46.04;95914.47;5112838;28;20209;-68
2024/01/21 10:02:49;;;;;;;3.90;3.60;;;;;;;10.62;45.98;95943.56;5112162;28;20200;-70
2024/01/21 10:05:15;;;;;;;3.90;3.53;;;;;;;10.58;46.31;95939.59;5112998;28;20234;-67
2024/01/21 10:07:44;;;;;;;4.13;3.57;;;;;;;10.51;46.03;95929.00;5113158;28;20181;-71
2024/01/21 10:10:13;;;;;;;5.37;3.77;;;;;;;10.52;46.04;95938.28;5113135;28;20185;-66
2024/01/21 10:12:40;;;;;;;4.20;3.80;;;;;;;10.37;46.34;95908.69;5112575;28;20217;-68
2024/01/21 10:15:08;;;;;;;4.90;4.37;;;;;;;10.48;46.43;95930.00;5113113;28;20193;-70
2024/01/21 10:17:35;;;;;;;4.63;3.83;;;;;;;10.47;46.19;95925.00;5112257;28;20215;-73
2024/01/21 10:20:02;;;;;;;4.27;3.87;;;;;;;10.47;46.34;95915.59;5113016;28;20627;-74
2024/01/21 10:22:29;;;;;;;6.03;4.03;;;;;;;10.48;46.42;95919.78;5112782;28;20650;-73
2024/01/21 10:25:01;;;;;;;4.50;3.67;;;;;;;10.49;46.56;95916.31;5113208;28;20199;-73
2024/01/21 10:27:28;;;;;;;5.10;3.83;;;;;;;10.50;46.48;95920.50;5112723;27;20231;-72
2024/01/21 10:29:57;;;;;;;4.30;3.83;;;;;;;10.51;46.22;95913.66;5112577;28;20177;-74
2024/01/21 10:32:24;;;;;;;4.40;4.00;;;;;;;10.52;46.31;95916.09;5112611;28;20212;-68
2024/01/21 10:34:50;;;;;;;4.67;4.20;;;;;;;10.18;46.18;95852.84;5112250;28;20193;-71
2024/01/21 10:37:17;;;;;;;4.30;3.90;;;;;;;10.32;46.28;95878.31;5111987;28;20202;-67
2024/01/21 10:39:46;;;;;;;4.67;3.97;;;;;;;10.39;46.29;95882.06;5112937;28;20720;-72
2024/01/21 10:42:15;;;;;;;3.80;3.43;;;;;;;10.58;46.23;95906.34;5112376;28;20615;-68
2024/01/21 10:44:43;;;;;;;4.60;4.07;;;;;;;10.61;46.40;95909.50;5112004;28;20188;-67
2024/01/21 10:47:10;;;;;;;4.73;4.00;;;;;;;10.65;46.42;95900.69;5111909;28;20211;-71
2024/01/21 10:49:38;;;;;;;4.13;3.73;;;;;;;10.55;46.07;95874.16;5112758;28;20188;-71
2024/01/21 10:52:08;;;;;;;5.03;3.87;;;;;;;10.55;46.12;95880.06;5112673;28;20230;-73
2024/01/21 10:54:37;;;;;;;4.33;3.93;;;;;;;10.66;46.45;95897.22;5111326;28;20288;-71
2024/01/21 10:57:04;;;;;;;5.37;3.80;;;;;;;10.73;46.08;95903.53;5112775;28;20279;-72
2024/01/21 10:59:35;;;;;;;4.40;3.90;;;;;;;10.74;46.12;95901.78;5112235;28;20283;-70
2024/01/21 11:02:02;;;;;;;5.50;3.63;;;;;;;10.74;45.98;95896.66;5112735;28;20177;-68
2024/01/21 11:04:29;;;;;;;5.33;4.13;;;;;;;10.74;46.19;95897.47;5112731;28;20650;-71
2024/01/21 11:06:56;;;;;;;4.73;4.10;;;;;;;10.76;45.78;95897.41;5112695;28;20185;-71
2024/01/21 11:09:26;;;;;;;6.60;4.57;;;;;;;10.76;45.92;95898.22;5112290;28;20291;-69
2024/01/21 11:11:53;;;;;;;4.20;3.80;;;;;;;10.76;45.68;95898.22;5112248;28;20220;-65
2024/01/21 11:14:30;;;;;;;5.83;4.13;;;;;;;10.62;45.66;95874.50;5112762;28;20200;-67
2024/01/21 11:16:59;;;;;;;5.80;4.53;;;;;;;10.75;45.61;95890.63;5116635;28;20213;-66
2024/01/21 11:19:30;;;;;;;7.00;4.13;;;;;;;10.69;45.60;95891.06;5113441;28;20197;-69
2024/01/21 11:21:59;;;;;;;4.10;3.70;;;;;;;10.24;45.50;95817.50;5113029;28;20238;-74
2024/01/21 11:24:30;;;;;;;4.60;4.20;;;;;;;10.72;45.68;95893.41;5112738;28;20193;-72
2024/01/21 11:26:58;;;;;;;5.13;3.97;;;;;;;10.70;45.53;95890.94;5112670;28;20617;-72
2024/01/21 11:29:26;;;;;;;4.10;3.70;;;;;;;10.71;45.49;95899.47;5118325;28;20285;-74
2024/01/21 11:31:54;;;;;;;5.87;4.23;;;;;;;10.69;45.49;95897.00;5121228;28;20541;-74
2024/01/21 11:34:22;;;;;;;6.70;4.83;;;;;;;10.68;45.42;95889.44;5126708;28;20193;-70
2024/01/21 11:36:50;;;;;;;7.13;4.53;;;;;;;10.68;45.42;95889.44;5124792;28;20189;-66
2024/01/21 11:39:19;;;;;;;5.10;4.60;;;;;;;10.67;45.59;95880.13;5114513;28;20220;-68